createdAt,value
2019-03-20T00:00:15.645Z,77.75
2019-03-20T00:01:15.639Z,77.50
2019-03-20T00:02:15.624Z,77.75
2019-03-20T00:03:15.614Z,77.71
2019-03-20T00:04:15.614Z,78.02
2019-03-20T00:05:15.593Z,77.64
2019-03-20T00:06:15.583Z,77.95
2019-03-20T00:07:15.573Z,77.50
2019-03-20T00:08:15.565Z,77.75
2019-03-20T00:09:15.551Z,77.40
2019-03-20T00:10:15.555Z,77.95
2019-03-20T00:11:15.531Z,77.85
2019-03-20T00:12:15.520Z,78.27
2019-03-20T00:13:15.509Z,77.71
2019-03-20T00:14:15.499Z,78.06
2019-03-20T00:15:15.488Z,78.16
2019-03-20T00:16:15.488Z,78.27
2019-03-20T00:17:15.467Z,77.85
2019-03-20T00:18:15.460Z,78.47
2019-03-20T00:19:15.448Z,78.37
2019-03-20T00:20:15.435Z,78.37
2019-03-20T00:21:15.425Z,78.78
2019-03-20T00:22:15.430Z,78.16
2019-03-20T00:23:15.405Z,77.85
2019-03-20T00:24:15.396Z,78.27
2019-03-20T00:25:15.388Z,78.27
2019-03-20T00:26:15.374Z,78.47
2019-03-20T00:27:15.364Z,78.58
2019-03-20T00:28:15.369Z,77.95
2019-03-20T00:29:15.343Z,78.51
2019-03-20T00:30:15.331Z,78.82
2019-03-20T00:31:15.321Z,79.13
2019-03-20T00:32:15.321Z,78.82
2019-03-20T00:33:15.301Z,79.24
2019-03-20T00:34:15.305Z,79.03
2019-03-20T00:35:15.282Z,79.24
2019-03-20T00:36:15.268Z,79.65
2019-03-20T00:37:15.258Z,79.27
2019-03-20T00:38:15.249Z,79.03
2019-03-20T00:39:15.255Z,79.34
2019-03-20T00:40:15.238Z,79.44
2019-03-20T00:41:15.216Z,79.69
2019-03-20T00:42:15.205Z,79.69
2019-03-20T00:43:15.195Z,79.90
2019-03-20T00:44:15.185Z,79.90
2019-03-20T00:45:15.174Z,79.90
2019-03-20T00:46:15.173Z,80.10
2019-03-20T00:47:15.153Z,80.21
2019-03-20T00:48:15.140Z,80.31
2019-03-20T00:49:15.132Z,80.10
2019-03-20T00:50:15.122Z,80.00
2019-03-20T00:51:15.109Z,80.00
2019-03-20T00:52:15.108Z,79.65
2019-03-20T00:53:15.088Z,79.65
2019-03-20T00:54:15.076Z,79.44
2019-03-20T00:55:15.065Z,79.24
2019-03-20T00:56:15.054Z,79.03
2019-03-20T00:57:15.044Z,79.44
2019-03-20T00:58:15.044Z,79.34
2019-03-20T00:59:15.023Z,79.13
2019-03-20T01:00:15.013Z,78.92
2019-03-20T01:01:15.000Z,79.44
2019-03-20T01:02:14.989Z,78.92
2019-03-20T01:03:14.977Z,78.72
2019-03-20T01:04:14.992Z,78.82
2019-03-20T01:05:14.955Z,78.72
2019-03-20T01:06:14.945Z,78.72
2019-03-20T01:07:14.935Z,78.72
2019-03-20T01:08:14.924Z,78.72
2019-03-20T01:09:14.913Z,78.82
2019-03-20T01:10:14.914Z,78.72
2019-03-20T01:11:14.892Z,78.92
2019-03-20T01:12:14.882Z,78.72
2019-03-20T01:13:14.872Z,78.92
2019-03-20T01:14:14.860Z,78.72
2019-03-20T01:15:14.848Z,79.13
2019-03-20T01:16:14.848Z,78.82
2019-03-20T01:17:14.826Z,78.82
2019-03-20T01:18:14.816Z,78.82
2019-03-20T01:19:14.805Z,79.03
2019-03-20T01:20:14.794Z,79.38
2019-03-20T01:21:14.788Z,79.48
2019-03-20T01:22:14.785Z,79.79
2019-03-20T01:23:14.762Z,79.55
2019-03-20T01:24:14.751Z,79.75
2019-03-20T01:25:14.740Z,79.44
2019-03-20T01:26:14.729Z,79.58
2019-03-20T01:27:14.722Z,79.65
2019-03-20T01:28:14.720Z,79.44
2019-03-20T01:29:14.698Z,79.55
2019-03-20T01:30:14.686Z,79.38
2019-03-20T01:31:14.675Z,79.34
2019-03-20T01:32:14.668Z,79.58
2019-03-20T01:33:14.659Z,79.24
2019-03-20T01:34:14.660Z,78.82
2019-03-20T01:35:23.449Z,78.92
2019-03-20T01:36:15.622Z,79.34
2019-03-20T01:37:14.611Z,79.27
2019-03-20T01:38:14.603Z,79.13
2019-03-20T01:39:14.589Z,79.17
2019-03-20T01:40:14.591Z,79.65
2019-03-20T01:41:14.567Z,79.27
2019-03-20T01:42:14.557Z,79.17
2019-03-20T01:43:14.548Z,79.27
2019-03-20T01:44:14.536Z,79.03
2019-03-20T01:45:14.563Z,79.38
2019-03-20T01:46:14.555Z,79.24
2019-03-20T01:47:14.502Z,79.44
2019-03-20T01:48:14.497Z,79.17
2019-03-20T01:49:14.480Z,79.38
2019-03-20T01:50:14.479Z,79.06
2019-03-20T01:51:14.460Z,79.79
2019-03-20T01:52:14.495Z,79.58
2019-03-20T01:53:14.438Z,79.90
2019-03-20T01:54:14.426Z,79.90
2019-03-20T01:55:14.416Z,80.10
2019-03-20T01:56:14.404Z,80.14
2019-03-20T01:57:14.396Z,80.31
2019-03-20T01:58:14.394Z,80.24
2019-03-20T01:59:14.375Z,80.35
2019-03-20T02:00:14.362Z,80.04
2019-03-20T02:01:14.351Z,80.35
2019-03-20T02:02:14.340Z,80.55
2019-03-20T02:03:14.329Z,80.80
2019-03-20T02:04:14.331Z,80.45
2019-03-20T02:05:14.320Z,80.69
2019-03-20T02:06:14.296Z,80.80
2019-03-20T02:07:14.286Z,81.01
2019-03-20T02:08:14.276Z,80.80
2019-03-20T02:09:14.269Z,80.90
2019-03-20T02:10:14.265Z,81.01
2019-03-20T02:11:14.242Z,80.97
2019-03-20T02:12:14.232Z,81.73
2019-03-20T02:13:14.222Z,81.63
2019-03-20T02:14:14.213Z,81.49
2019-03-20T02:15:14.199Z,81.01
2019-03-20T02:16:14.199Z,80.90
2019-03-20T02:17:14.179Z,81.32
2019-03-20T02:18:14.170Z,81.42
2019-03-20T02:19:14.156Z,81.84
2019-03-20T02:20:14.146Z,81.84
2019-03-20T02:21:14.137Z,81.67
2019-03-20T02:22:14.136Z,81.52
2019-03-20T02:23:14.113Z,81.56
2019-03-20T02:24:14.102Z,81.56
2019-03-20T02:25:14.093Z,81.98
2019-03-20T02:26:14.081Z,82.08
2019-03-20T02:27:14.070Z,82.29
2019-03-20T02:28:14.070Z,82.39
2019-03-20T02:29:14.048Z,82.39
2019-03-20T02:30:14.045Z,82.18
2019-03-20T02:31:14.028Z,82.18
2019-03-20T02:32:14.016Z,81.87
2019-03-20T02:33:14.005Z,81.77
2019-03-20T02:34:14.009Z,81.77
2019-03-20T02:35:13.984Z,82.18
2019-03-20T02:36:13.974Z,82.29
2019-03-20T02:37:13.968Z,82.18
2019-03-20T02:38:13.952Z,82.74
2019-03-20T02:39:13.941Z,82.74
2019-03-20T02:40:13.950Z,82.84
2019-03-20T02:41:13.919Z,82.74
2019-03-20T02:42:13.908Z,83.01
2019-03-20T02:43:13.898Z,82.95
2019-03-20T02:44:13.888Z,83.47
2019-03-20T02:45:13.880Z,82.81
2019-03-20T02:46:13.879Z,82.70
2019-03-20T02:47:13.862Z,82.12
2019-03-20T02:48:13.845Z,82.12
2019-03-20T02:49:13.838Z,82.50
2019-03-20T02:50:13.826Z,82.12
2019-03-20T02:51:13.812Z,82.32
2019-03-20T02:52:13.819Z,82.64
2019-03-20T02:53:13.801Z,83.16
2019-03-20T02:54:13.785Z,82.84
2019-03-20T02:55:13.773Z,82.84
2019-03-20T02:56:13.758Z,83.16
2019-03-20T02:57:13.748Z,82.84
2019-03-20T02:58:13.752Z,82.84
2019-03-20T02:59:13.726Z,83.37
2019-03-20T03:00:13.723Z,83.89
2019-03-20T03:01:13.712Z,84.09
2019-03-20T03:02:13.695Z,83.78
2019-03-20T03:03:13.686Z,83.78
2019-03-20T03:04:13.684Z,83.89
2019-03-20T03:05:13.667Z,84.23
2019-03-20T03:06:13.654Z,83.82
2019-03-20T03:07:13.643Z,83.92
2019-03-20T03:08:13.636Z,84.75
2019-03-20T03:09:13.622Z,84.44
2019-03-20T03:10:13.623Z,84.34
2019-03-20T03:11:13.606Z,84.03
2019-03-20T03:12:13.591Z,84.55
2019-03-20T03:13:13.582Z,83.92
2019-03-20T03:14:13.570Z,84.44
2019-03-20T03:15:13.563Z,83.82
2019-03-20T03:16:13.561Z,84.23
2019-03-20T03:17:13.539Z,83.72
2019-03-20T03:18:13.529Z,83.92
2019-03-20T03:19:13.518Z,83.61
2019-03-20T03:20:13.512Z,84.38
2019-03-20T03:21:13.498Z,84.27
2019-03-20T03:22:13.498Z,84.59
2019-03-20T03:23:13.479Z,85.00
2019-03-20T03:24:13.469Z,85.00
2019-03-20T03:25:13.459Z,85.11
2019-03-20T03:26:13.445Z,85.11
2019-03-20T03:27:13.435Z,85.11
2019-03-20T03:28:13.445Z,85.21
2019-03-20T03:29:13.416Z,85.00
2019-03-20T03:30:13.404Z,84.69
2019-03-20T03:31:13.396Z,84.69
2019-03-20T03:32:13.387Z,84.69
2019-03-20T03:33:13.373Z,83.86
2019-03-20T03:34:13.391Z,83.44
2019-03-20T03:35:17.162Z,85.11
2019-03-20T03:36:21.342Z,85.00
2019-03-20T03:37:14.330Z,85.00
2019-03-20T03:38:13.320Z,85.00
2019-03-20T03:39:13.309Z,85.31
2019-03-20T03:40:13.309Z,85.31
2019-03-20T03:41:13.293Z,85.00
2019-03-20T03:42:13.289Z,85.00
2019-03-20T03:43:13.274Z,85.21
2019-03-20T03:44:13.258Z,85.04
2019-03-20T03:45:13.251Z,84.90
2019-03-20T03:46:13.250Z,85.11
2019-03-20T03:47:13.225Z,85.00
2019-03-20T03:48:13.213Z,85.00
2019-03-20T03:49:13.204Z,84.90
2019-03-20T03:50:13.194Z,84.69
2019-03-20T03:51:13.182Z,85.77
2019-03-20T03:52:13.181Z,85.63
2019-03-20T03:53:13.162Z,85.56
2019-03-20T03:54:13.151Z,85.46
2019-03-20T03:55:13.138Z,85.88
2019-03-20T03:56:13.133Z,85.98
2019-03-20T03:57:13.119Z,86.19
2019-03-20T03:58:13.117Z,86.40
2019-03-20T03:59:13.111Z,86.29
2019-03-20T04:00:13.096Z,85.88
2019-03-20T04:01:13.080Z,86.15
2019-03-20T04:02:13.065Z,86.29
2019-03-20T04:03:13.058Z,85.98
2019-03-20T04:04:13.054Z,85.98
2019-03-20T04:05:13.031Z,85.77
2019-03-20T04:06:13.022Z,85.88
2019-03-20T04:07:13.009Z,86.35
2019-03-20T04:08:12.999Z,86.15
2019-03-20T04:09:12.994Z,86.25
2019-03-20T04:10:12.987Z,86.19
2019-03-20T04:11:12.966Z,85.63
2019-03-20T04:12:12.963Z,85.94
2019-03-20T04:13:12.948Z,85.42
2019-03-20T04:14:12.935Z,85.42
2019-03-20T04:15:12.924Z,85.63
2019-03-20T04:16:12.924Z,85.73
2019-03-20T04:17:12.901Z,85.11
2019-03-20T04:18:12.892Z,85.73
2019-03-20T04:19:12.881Z,85.31
2019-03-20T04:20:12.876Z,84.59
2019-03-20T04:21:12.873Z,84.80
2019-03-20T04:22:12.872Z,85.14
2019-03-20T04:23:12.838Z,85.25
2019-03-20T04:24:12.829Z,85.25
2019-03-20T04:25:12.819Z,85.67
2019-03-20T04:26:12.807Z,85.73
2019-03-20T04:27:12.800Z,85.52
2019-03-20T04:28:12.795Z,85.46
2019-03-20T04:29:14.109Z,85.56
2019-03-20T04:30:12.843Z,85.56
2019-03-20T04:31:12.757Z,85.83
2019-03-20T04:32:12.744Z,86.15
2019-03-20T04:33:12.734Z,85.98
2019-03-20T04:34:12.739Z,85.94
2019-03-20T04:35:12.718Z,85.52
2019-03-20T04:36:12.702Z,85.73
2019-03-20T04:37:12.693Z,85.94
2019-03-20T04:38:12.682Z,85.73
2019-03-20T04:39:12.670Z,85.52
2019-03-20T04:40:12.673Z,85.42
2019-03-20T04:41:12.651Z,85.21
2019-03-20T04:42:12.639Z,85.83
2019-03-20T04:43:12.629Z,85.73
2019-03-20T04:44:12.617Z,85.77
2019-03-20T04:45:12.864Z,86.19
2019-03-20T04:46:12.607Z,86.29
2019-03-20T04:47:12.586Z,87.12
2019-03-20T04:48:12.579Z,86.50
2019-03-20T04:49:12.569Z,86.35
2019-03-20T04:50:12.555Z,86.67
2019-03-20T04:51:12.546Z,86.67
2019-03-20T04:52:12.552Z,86.25
2019-03-20T04:53:12.524Z,86.04
2019-03-20T04:54:12.514Z,86.46
2019-03-20T04:55:12.503Z,86.15
2019-03-20T04:56:12.492Z,85.83
2019-03-20T04:57:12.482Z,86.25
2019-03-20T04:58:12.488Z,85.94
2019-03-20T04:59:12.461Z,86.35
2019-03-20T05:00:12.450Z,86.11
2019-03-20T05:01:12.440Z,86.35
2019-03-20T05:02:12.430Z,86.25
2019-03-20T05:03:12.419Z,85.59
2019-03-20T05:04:12.421Z,86.21
2019-03-20T05:05:12.398Z,86.21
2019-03-20T05:06:12.397Z,85.69
2019-03-20T05:07:12.384Z,86.04
2019-03-20T05:08:12.372Z,86.32
2019-03-20T05:09:12.357Z,85.94
2019-03-20T05:10:12.358Z,86.32
2019-03-20T05:11:12.337Z,86.32
2019-03-20T05:12:12.326Z,86.42
2019-03-20T05:13:12.315Z,86.32
2019-03-20T05:14:12.559Z,86.21
2019-03-20T05:15:12.295Z,86.17
2019-03-20T05:16:12.297Z,86.17
2019-03-20T05:17:12.273Z,85.65
2019-03-20T05:18:12.264Z,85.90
2019-03-20T05:19:12.254Z,85.90
2019-03-20T05:20:12.244Z,86.00
2019-03-20T05:21:12.232Z,86.21
2019-03-20T05:22:12.239Z,85.80
2019-03-20T05:23:12.211Z,85.65
2019-03-20T05:24:12.201Z,85.65
2019-03-20T05:25:12.191Z,85.65
2019-03-20T05:26:12.179Z,85.90
2019-03-20T05:27:12.171Z,85.69
2019-03-20T05:28:12.170Z,85.96
2019-03-20T05:29:12.148Z,85.80
2019-03-20T05:30:12.152Z,86.42
2019-03-20T05:31:12.129Z,85.90
2019-03-20T05:32:12.117Z,85.90
2019-03-20T05:33:12.105Z,85.38
2019-03-20T05:34:12.105Z,85.65
2019-03-20T05:35:12.086Z,85.49
2019-03-20T05:36:12.074Z,85.28
2019-03-20T05:37:12.070Z,85.90
2019-03-20T05:38:12.053Z,85.69
2019-03-20T05:39:12.043Z,86.21
2019-03-20T05:40:12.045Z,86.21
2019-03-20T05:41:12.021Z,86.32
2019-03-20T05:42:12.010Z,86.21
2019-03-20T05:43:12.000Z,86.32
2019-03-20T05:44:11.990Z,86.52
2019-03-20T05:45:11.979Z,86.00
2019-03-20T05:46:11.983Z,86.21
2019-03-20T05:47:11.958Z,86.11
2019-03-20T05:48:11.946Z,86.42
2019-03-20T05:49:11.936Z,86.38
2019-03-20T05:50:11.925Z,86.73
2019-03-20T05:51:11.913Z,86.59
2019-03-20T05:52:11.921Z,86.52
2019-03-20T05:53:11.893Z,86.32
2019-03-20T05:54:11.894Z,86.17
2019-03-20T05:55:11.874Z,86.17
2019-03-20T05:56:11.861Z,86.17
2019-03-20T05:57:12.717Z,86.07
2019-03-20T05:58:11.850Z,87.07
2019-03-20T05:59:11.830Z,86.24
2019-03-20T06:00:11.817Z,85.61
2019-03-20T06:01:11.810Z,85.88
2019-03-20T06:02:11.799Z,85.78
2019-03-20T06:03:11.784Z,85.26
2019-03-20T06:04:11.783Z,85.22
2019-03-20T06:05:11.762Z,84.81
2019-03-20T06:06:11.753Z,84.70
2019-03-20T06:07:21.165Z,83.98
2019-03-20T06:08:12.730Z,83.73
2019-03-20T06:09:11.721Z,83.32
2019-03-20T06:10:11.721Z,83.11
2019-03-20T06:11:11.699Z,83.94
2019-03-20T06:12:11.688Z,83.48
2019-03-20T06:13:11.678Z,83.48
2019-03-20T06:14:11.667Z,84.31
2019-03-20T06:15:11.661Z,83.80
2019-03-20T06:16:11.658Z,82.86
2019-03-20T06:17:11.636Z,82.86
2019-03-20T06:18:11.628Z,82.86
2019-03-20T06:19:11.616Z,83.07
2019-03-20T06:20:11.605Z,83.48
2019-03-20T06:21:11.595Z,83.38
2019-03-20T06:22:11.594Z,83.80
2019-03-20T06:23:11.576Z,83.28
2019-03-20T06:24:11.564Z,83.80
2019-03-20T06:25:11.552Z,83.17
2019-03-20T06:26:11.543Z,83.69
2019-03-20T06:27:11.529Z,83.38
2019-03-20T06:28:11.531Z,83.59
2019-03-20T06:29:11.508Z,83.59
2019-03-20T06:30:11.502Z,83.38
2019-03-20T06:31:11.485Z,82.86
2019-03-20T06:32:11.478Z,82.86
2019-03-20T06:33:11.465Z,83.28
2019-03-20T06:34:11.469Z,82.97
2019-03-20T06:35:11.445Z,83.07
2019-03-20T06:36:11.430Z,82.86
2019-03-20T06:37:11.419Z,82.93
2019-03-20T06:38:11.409Z,82.31
2019-03-20T06:39:11.398Z,82.62
2019-03-20T06:40:11.405Z,82.51
2019-03-20T06:41:11.377Z,82.51
2019-03-20T06:42:11.365Z,82.58
2019-03-20T06:43:11.356Z,81.96
2019-03-20T06:44:11.344Z,81.96
2019-03-20T06:45:11.334Z,81.85
2019-03-20T06:46:11.335Z,81.65
2019-03-20T06:47:11.311Z,81.20
2019-03-20T06:48:11.301Z,79.91
2019-03-20T06:49:11.292Z,78.85
2019-03-20T06:50:11.280Z,78.50
2019-03-20T06:51:11.269Z,78.39
2019-03-20T06:52:11.277Z,78.05
2019-03-20T06:53:11.248Z,77.01
2019-03-20T06:54:11.237Z,76.81
2019-03-20T06:55:11.226Z,76.77
2019-03-20T06:56:11.216Z,75.91
2019-03-20T06:57:11.204Z,75.60
2019-03-20T06:58:11.205Z,74.02
2019-03-20T06:59:11.183Z,74.19
2019-03-20T07:00:11.173Z,73.54
2019-03-20T07:01:11.161Z,73.85
2019-03-20T07:02:11.152Z,73.19
2019-03-20T07:03:11.139Z,72.47
2019-03-20T07:04:11.139Z,71.55
2019-03-20T07:05:11.118Z,71.20
2019-03-20T07:06:11.107Z,70.86
2019-03-20T07:07:11.096Z,70.45
2019-03-20T07:08:11.086Z,70.24
2019-03-20T07:09:11.082Z,70.42
2019-03-20T07:10:11.074Z,70.28
2019-03-20T07:11:11.056Z,69.87
2019-03-20T07:12:11.043Z,69.66
2019-03-20T07:13:11.035Z,69.22
2019-03-20T07:14:11.027Z,68.50
2019-03-20T07:15:11.013Z,68.40
2019-03-20T07:16:11.011Z,67.65
2019-03-20T07:17:10.993Z,68.19
2019-03-20T07:18:10.977Z,69.32
2019-03-20T07:19:10.966Z,68.74
2019-03-20T07:20:10.958Z,68.43
2019-03-20T07:21:10.944Z,69.46
2019-03-20T07:22:10.944Z,68.98
2019-03-20T07:23:10.922Z,69.04
2019-03-20T07:24:10.911Z,69.25
2019-03-20T07:25:10.904Z,69.56
2019-03-20T07:26:10.892Z,69.32
2019-03-20T07:27:10.879Z,69.18
2019-03-20T07:28:10.886Z,68.77
2019-03-20T07:29:10.858Z,69.70
2019-03-20T07:30:10.847Z,69.36
2019-03-20T07:31:15.591Z,68.67
2019-03-20T07:32:11.824Z,68.13
2019-03-20T07:33:10.813Z,68.85
2019-03-20T07:34:10.813Z,67.92
2019-03-20T07:35:10.791Z,66.38
2019-03-20T07:36:10.779Z,67.61
2019-03-20T07:37:10.769Z,68.43
2019-03-20T07:38:10.758Z,68.02
2019-03-20T07:39:10.752Z,68.43
2019-03-20T07:40:10.746Z,67.92
2019-03-20T07:41:10.724Z,68.85
2019-03-20T07:42:10.712Z,69.26
2019-03-20T07:43:10.711Z,69.29
2019-03-20T07:44:10.691Z,69.60
2019-03-20T07:45:10.682Z,69.49
2019-03-20T07:46:10.688Z,69.49
2019-03-20T07:47:10.659Z,70.21
2019-03-20T07:48:21.162Z,70.21
2019-03-20T07:49:11.637Z,70.01
2019-03-20T07:50:10.628Z,70.01
2019-03-20T07:51:10.617Z,69.80
2019-03-20T07:52:10.621Z,70.32
2019-03-20T07:53:10.597Z,70.04
2019-03-20T07:54:10.583Z,70.45
2019-03-20T07:55:10.573Z,70.45
2019-03-20T07:56:10.562Z,70.76
2019-03-20T07:57:10.551Z,70.66
2019-03-20T07:58:10.560Z,70.66
2019-03-20T07:59:10.531Z,71.17
2019-03-20T08:00:10.520Z,71.17
2019-03-20T08:01:10.507Z,71.07
2019-03-20T08:02:10.497Z,70.97
2019-03-20T08:03:10.486Z,70.76
2019-03-20T08:04:10.487Z,70.66
2019-03-20T08:05:10.463Z,71.07
2019-03-20T08:06:10.452Z,70.86
2019-03-20T08:07:10.441Z,70.62
2019-03-20T08:08:10.430Z,70.73
2019-03-20T08:09:10.422Z,71.55
2019-03-20T08:10:10.420Z,70.86
2019-03-20T08:11:10.399Z,70.73
2019-03-20T08:12:10.386Z,72.06
2019-03-20T08:13:10.376Z,71.75
2019-03-20T08:14:10.365Z,71.75
2019-03-20T08:15:10.363Z,71.96
2019-03-20T08:16:10.354Z,71.45
2019-03-20T08:17:10.334Z,71.04
2019-03-20T08:18:10.329Z,71.14
2019-03-20T08:19:10.311Z,71.34
2019-03-20T08:20:10.303Z,71.55
2019-03-20T08:21:10.289Z,71.04
2019-03-20T08:22:10.294Z,70.42
2019-03-20T08:23:10.268Z,70.52
2019-03-20T08:24:10.260Z,70.42
2019-03-20T08:25:10.246Z,70.11
2019-03-20T08:26:10.237Z,70.42
2019-03-20T08:27:10.225Z,70.79
2019-03-20T08:28:10.233Z,70.83
2019-03-20T08:29:10.203Z,70.42
2019-03-20T08:30:10.195Z,70.94
2019-03-20T08:31:10.182Z,70.52
2019-03-20T08:32:10.171Z,70.52
2019-03-20T08:33:10.160Z,70.32
2019-03-20T08:34:10.170Z,70.62
2019-03-20T08:35:10.139Z,70.42
2019-03-20T08:36:10.129Z,70.52
2019-03-20T08:37:10.117Z,70.42
2019-03-20T08:38:18.155Z,70.62
2019-03-20T08:39:11.106Z,70.83
2019-03-20T08:40:10.085Z,70.52
2019-03-20T08:41:10.074Z,70.62
2019-03-20T08:42:10.064Z,70.42
2019-03-20T08:43:10.054Z,70.73
2019-03-20T08:44:10.045Z,70.52
2019-03-20T08:45:10.043Z,70.32
2019-03-20T08:46:10.021Z,70.90
2019-03-20T08:47:10.010Z,70.83
2019-03-20T08:48:10.000Z,70.94
2019-03-20T08:49:09.990Z,70.94
2019-03-20T08:50:09.977Z,72.06
2019-03-20T08:51:09.979Z,71.11
2019-03-20T08:52:09.956Z,71.45
2019-03-20T08:53:09.945Z,71.24
2019-03-20T08:54:09.936Z,70.94
2019-03-20T08:55:09.924Z,70.90
2019-03-20T08:56:09.914Z,70.39
2019-03-20T08:57:09.915Z,70.79
2019-03-20T08:58:09.893Z,70.87
2019-03-20T08:59:09.881Z,70.66
2019-03-20T09:00:09.874Z,70.87
2019-03-20T09:01:09.863Z,70.56
2019-03-20T09:02:09.849Z,71.08
2019-03-20T09:03:09.857Z,70.66
2019-03-20T09:04:09.828Z,70.36
2019-03-20T09:05:09.821Z,70.87
2019-03-20T09:06:09.822Z,70.46
2019-03-20T09:07:09.797Z,70.36
2019-03-20T09:08:09.807Z,70.46
2019-03-20T09:09:09.797Z,69.91
2019-03-20T09:10:09.763Z,70.73
2019-03-20T09:11:09.757Z,70.01
2019-03-20T09:12:09.741Z,70.01
2019-03-20T09:13:09.730Z,70.42
2019-03-20T09:14:09.719Z,70.01
2019-03-20T09:15:09.721Z,69.88
2019-03-20T09:16:09.696Z,70.15
2019-03-20T09:17:09.686Z,70.15
2019-03-20T09:18:09.675Z,69.74
2019-03-20T09:19:09.670Z,70.36
2019-03-20T09:20:09.682Z,69.84
2019-03-20T09:21:09.655Z,69.84
2019-03-20T09:22:09.631Z,69.84
2019-03-20T09:23:09.619Z,69.23
2019-03-20T09:24:09.609Z,69.23
2019-03-20T09:25:09.599Z,69.23
2019-03-20T09:26:09.587Z,69.54
2019-03-20T09:27:09.586Z,68.92
2019-03-20T09:28:09.564Z,69.95
2019-03-20T09:29:18.145Z,70.26
2019-03-20T09:30:10.542Z,70.05
2019-03-20T09:31:09.533Z,70.26
2019-03-20T09:32:09.522Z,70.05
2019-03-20T09:33:09.525Z,70.36
2019-03-20T09:34:09.500Z,70.26
2019-03-20T09:35:09.490Z,70.77
2019-03-20T09:36:09.478Z,70.36
2019-03-20T09:37:09.467Z,69.84
2019-03-20T09:38:09.459Z,70.36
2019-03-20T09:39:09.460Z,70.64
2019-03-20T09:40:09.435Z,70.87
2019-03-20T09:41:09.425Z,70.43
2019-03-20T09:42:09.416Z,70.22
2019-03-20T09:43:09.403Z,70.22
2019-03-20T09:44:09.392Z,70.12
2019-03-20T09:45:09.399Z,70.22
2019-03-20T09:46:09.377Z,69.92
2019-03-20T09:47:09.370Z,70.53
2019-03-20T09:48:09.390Z,70.43
2019-03-20T09:49:09.343Z,70.53
2019-03-20T09:50:09.329Z,69.81
2019-03-20T09:51:09.361Z,70.53
2019-03-20T09:52:09.307Z,70.53
2019-03-20T09:53:09.299Z,70.53
2019-03-20T09:54:09.288Z,70.50
2019-03-20T09:55:09.274Z,70.09
2019-03-20T09:56:09.264Z,69.98
2019-03-20T09:57:09.272Z,70.19
2019-03-20T09:58:11.840Z,70.50
2019-03-20T09:59:09.233Z,69.98
2019-03-20T10:00:09.222Z,70.26
2019-03-20T10:01:09.210Z,70.47
2019-03-20T10:02:09.201Z,70.60
2019-03-20T10:03:09.200Z,70.57
2019-03-20T10:04:09.178Z,70.36
2019-03-20T10:05:09.167Z,70.36
2019-03-20T10:06:09.156Z,70.16
2019-03-20T10:07:09.146Z,70.47
2019-03-20T10:08:09.135Z,70.16
2019-03-20T10:09:09.135Z,70.06
2019-03-20T10:10:09.115Z,70.47
2019-03-20T10:11:09.104Z,70.57
2019-03-20T10:12:09.092Z,70.06
2019-03-20T10:13:09.084Z,70.47
2019-03-20T10:14:09.075Z,70.47
2019-03-20T10:15:09.070Z,70.26
2019-03-20T10:16:09.050Z,70.87
2019-03-20T10:17:09.038Z,71.08
2019-03-20T10:18:09.031Z,70.57
2019-03-20T10:19:09.024Z,70.36
2019-03-20T10:20:09.007Z,70.64
2019-03-20T10:21:09.006Z,70.33
2019-03-20T10:22:08.984Z,70.23
2019-03-20T10:23:08.979Z,70.33
2019-03-20T10:24:08.966Z,70.43
2019-03-20T10:25:08.953Z,70.84
2019-03-20T10:26:08.943Z,70.64
2019-03-20T10:27:08.942Z,70.23
2019-03-20T10:28:08.921Z,70.23
2019-03-20T10:29:08.929Z,70.23
2019-03-20T10:30:08.899Z,70.50
2019-03-20T10:31:08.896Z,70.61
2019-03-20T10:32:08.878Z,69.79
2019-03-20T10:33:08.877Z,69.68
2019-03-20T10:34:08.856Z,69.27
2019-03-20T10:35:08.850Z,69.17
2019-03-20T10:36:08.842Z,69.65
2019-03-20T10:37:08.849Z,69.45
2019-03-20T10:38:08.810Z,69.45
2019-03-20T10:39:08.863Z,69.48
2019-03-20T10:40:08.790Z,69.34
2019-03-20T10:41:08.778Z,69.07
2019-03-20T10:42:08.767Z,68.93
2019-03-20T10:43:08.756Z,69.17
2019-03-20T10:44:08.747Z,68.93
2019-03-20T10:45:08.746Z,69.85
2019-03-20T10:46:08.724Z,69.24
2019-03-20T10:47:08.716Z,69.14
2019-03-20T10:48:08.702Z,68.93
2019-03-20T10:49:08.694Z,69.31
2019-03-20T10:50:08.690Z,69.14
2019-03-20T10:51:08.683Z,69.04
2019-03-20T10:52:08.661Z,69.34
2019-03-20T10:53:08.648Z,69.75
2019-03-20T10:54:08.638Z,69.75
2019-03-20T10:55:08.627Z,68.73
2019-03-20T10:56:08.624Z,69.24
2019-03-20T10:57:08.619Z,69.04
2019-03-20T10:58:08.596Z,69.45
2019-03-20T10:59:08.584Z,69.04
2019-03-20T11:00:08.577Z,69.24
2019-03-20T11:01:08.562Z,69.04
2019-03-20T11:02:08.551Z,69.14
2019-03-20T11:03:08.552Z,68.84
2019-03-20T11:04:08.547Z,69.04
2019-03-20T11:05:08.530Z,68.80
2019-03-20T11:06:08.514Z,69.11
2019-03-20T11:07:08.499Z,69.21
2019-03-20T11:08:08.493Z,69.42
2019-03-20T11:09:17.731Z,69.11
2019-03-20T11:10:09.469Z,68.97
2019-03-20T11:11:08.475Z,69.79
2019-03-20T11:12:08.443Z,69.18
2019-03-20T11:13:08.437Z,68.97
2019-03-20T11:14:08.445Z,69.59
2019-03-20T11:15:08.425Z,69.28
2019-03-20T11:16:08.402Z,69.38
2019-03-20T11:17:08.394Z,68.87
2019-03-20T11:18:08.386Z,69.07
2019-03-20T11:19:08.373Z,69.18
2019-03-20T11:20:08.359Z,69.38
2019-03-20T11:21:08.383Z,68.77
2019-03-20T11:22:18.236Z,68.87
2019-03-20T11:23:09.324Z,69.04
2019-03-20T11:24:08.318Z,69.15
2019-03-20T11:25:08.305Z,69.15
2019-03-20T11:26:08.294Z,69.15
2019-03-20T11:27:08.294Z,69.24
2019-03-20T11:28:08.272Z,69.15
2019-03-20T11:29:08.264Z,69.15
2019-03-20T11:30:08.250Z,68.63
2019-03-20T11:31:08.240Z,69.15
2019-03-20T11:32:08.230Z,69.15
2019-03-20T11:33:08.232Z,69.65
2019-03-20T11:34:08.208Z,69.96
2019-03-20T11:35:08.197Z,69.96
2019-03-20T11:36:08.186Z,70.37
2019-03-20T11:37:08.176Z,69.96
2019-03-20T11:38:08.165Z,69.65
2019-03-20T11:39:08.172Z,69.76
2019-03-20T11:40:08.147Z,69.86
2019-03-20T11:41:08.132Z,70.27
2019-03-20T11:42:08.122Z,69.76
2019-03-20T11:43:08.113Z,69.86
2019-03-20T11:44:08.099Z,70.00
2019-03-20T11:45:08.100Z,70.37
2019-03-20T11:46:08.113Z,70.30
2019-03-20T11:47:08.067Z,70.00
2019-03-20T11:48:08.061Z,70.40
2019-03-20T11:49:08.051Z,70.92
2019-03-20T11:50:08.037Z,70.30
2019-03-20T11:51:08.045Z,70.71
2019-03-20T11:52:08.020Z,70.71
2019-03-20T11:53:08.005Z,71.01
2019-03-20T11:54:07.994Z,71.12
2019-03-20T11:55:07.983Z,70.57
2019-03-20T11:56:07.972Z,71.29
2019-03-20T11:57:07.972Z,70.88
2019-03-20T11:58:07.956Z,71.19
2019-03-20T11:59:07.940Z,70.68
2019-03-20T12:00:07.930Z,70.78
2019-03-20T12:01:07.920Z,70.88
2019-03-20T12:02:07.908Z,71.29
2019-03-20T12:03:07.959Z,71.50
2019-03-20T12:04:07.887Z,71.97
2019-03-20T12:05:07.877Z,71.77
2019-03-20T12:06:07.866Z,71.29
2019-03-20T12:07:07.855Z,71.39
2019-03-20T12:08:07.844Z,71.19
2019-03-20T12:09:07.844Z,72.00
2019-03-20T12:10:07.824Z,71.36
2019-03-20T12:11:07.813Z,71.97
2019-03-20T12:12:07.802Z,71.70
2019-03-20T12:13:07.800Z,71.77
2019-03-20T12:14:07.781Z,71.59
2019-03-20T12:15:07.781Z,71.77
2019-03-20T12:16:07.763Z,72.28
2019-03-20T12:17:07.749Z,71.36
2019-03-20T12:18:07.738Z,71.56
2019-03-20T12:19:07.728Z,70.88
2019-03-20T12:20:07.718Z,70.47
2019-03-20T12:21:07.717Z,70.98
2019-03-20T12:22:07.695Z,70.88
2019-03-20T12:23:07.684Z,71.59
2019-03-20T12:24:07.675Z,71.80
2019-03-20T12:25:07.667Z,72.11
2019-03-20T12:26:07.654Z,71.59
2019-03-20T12:27:14.950Z,71.59
2019-03-20T12:28:08.629Z,71.91
2019-03-20T12:29:07.620Z,71.39
2019-03-20T12:30:07.609Z,71.63
2019-03-20T12:31:07.604Z,72.14
2019-03-20T12:32:07.587Z,72.31
2019-03-20T12:33:07.587Z,71.50
2019-03-20T12:34:07.566Z,72.00
2019-03-20T12:35:07.554Z,72.31
2019-03-20T12:36:07.545Z,71.39
2019-03-20T12:37:07.536Z,72.31
2019-03-20T12:38:14.273Z,72.04
2019-03-20T12:39:08.525Z,72.55
2019-03-20T12:40:07.500Z,72.65
2019-03-20T12:41:07.491Z,71.94
2019-03-20T12:42:07.480Z,71.83
2019-03-20T12:43:07.467Z,71.63
2019-03-20T12:44:07.457Z,71.83
2019-03-20T12:45:07.462Z,72.65
2019-03-20T12:46:07.435Z,72.96
2019-03-20T12:47:07.425Z,73.13
2019-03-20T12:48:07.522Z,72.86
2019-03-20T12:49:07.402Z,73.16
2019-03-20T12:50:07.392Z,73.03
2019-03-20T12:51:07.393Z,72.41
2019-03-20T12:52:07.370Z,72.72